sensor_id;sensor_type;location;lat;lon;timestamp;P1;durP1;ratioP1;P2;durP2;ratioP2
5616;SDS011;2830;50.656;7.568;2023-08-12T00:00:57;9.10;;;3.83;;
5616;SDS011;2830;50.656;7.568;2023-08-12T00:03:23;7.20;;;3.90;;
5616;SDS011;2830;50.656;7.568;2023-08-12T00:05:50;6.67;;;3.63;;
5616;SDS011;2830;50.656;7.568;2023-08-12T00:08:18;9.03;;;3.73;;
5616;SDS011;2830;50.656;7.568;2023-08-12T00:10:45;7.70;;;4.97;;
5616;SDS011;2830;50.656;7.568;2023-08-12T00:13:11;7.20;;;3.77;;
5616;SDS011;2830;50.656;7.568;2023-08-12T00:15:40;10.53;;;4.30;;
5616;SDS011;2830;50.656;7.568;2023-08-12T00:18:07;9.27;;;5.00;;
5616;SDS011;2830;50.656;7.568;2023-08-12T00:20:35;6.93;;;5.23;;
5616;SDS011;2830;50.656;7.568;2023-08-12T00:23:04;8.50;;;4.30;;
5616;SDS011;2830;50.656;7.568;2023-08-12T00:25:30;5.97;;;4.37;;
5616;SDS011;2830;50.656;7.568;2023-08-12T00:27:57;8.40;;;5.13;;
5616;SDS011;2830;50.656;7.568;2023-08-12T00:30:24;5.97;;;3.80;;
5616;SDS011;2830;50.656;7.568;2023-08-12T00:32:50;8.20;;;4.00;;
5616;SDS011;2830;50.656;7.568;2023-08-12T00:35:17;9.67;;;4.83;;
5616;SDS011;2830;50.656;7.568;2023-08-12T00:37:44;9.23;;;4.50;;
5616;SDS011;2830;50.656;7.568;2023-08-12T00:40:12;5.37;;;3.70;;
5616;SDS011;2830;50.656;7.568;2023-08-12T00:42:39;10.17;;;4.27;;
5616;SDS011;2830;50.656;7.568;2023-08-12T00:45:08;7.70;;;4.53;;
5616;SDS011;2830;50.656;7.568;2023-08-12T00:47:36;7.90;;;4.23;;
5616;SDS011;2830;50.656;7.568;2023-08-12T00:50:05;10.37;;;5.23;;
5616;SDS011;2830;50.656;7.568;2023-08-12T00:52:34;7.73;;;4.87;;
5616;SDS011;2830;50.656;7.568;2023-08-12T00:55:01;7.00;;;4.80;;
5616;SDS011;2830;50.656;7.568;2023-08-12T00:57:28;11.00;;;5.37;;
5616;SDS011;2830;50.656;7.568;2023-08-12T00:59:55;7.10;;;4.67;;
5616;SDS011;2830;50.656;7.568;2023-08-12T01:02:23;10.20;;;5.37;;
5616;SDS011;2830;50.656;7.568;2023-08-12T01:04:50;9.80;;;4.90;;
5616;SDS011;2830;50.656;7.568;2023-08-12T01:07:16;13.33;;;8.10;;
5616;SDS011;2830;50.656;7.568;2023-08-12T01:09:43;14.10;;;6.57;;
5616;SDS011;2830;50.656;7.568;2023-08-12T01:12:14;12.80;;;6.90;;
5616;SDS011;2830;50.656;7.568;2023-08-12T01:15:04;12.97;;;9.27;;
5616;SDS011;2830;50.656;7.568;2023-08-12T01:17:35;11.00;;;6.17;;
5616;SDS011;2830;50.656;7.568;2023-08-12T01:20:07;10.87;;;7.10;;
5616;SDS011;2830;50.656;7.568;2023-08-12T01:22:38;11.90;;;8.83;;
5616;SDS011;2830;50.656;7.568;2023-08-12T01:25:07;15.07;;;12.20;;
5616;SDS011;2830;50.656;7.568;2023-08-12T01:27:35;14.73;;;7.80;;
5616;SDS011;2830;50.656;7.568;2023-08-12T01:30:02;14.83;;;8.60;;
5616;SDS011;2830;50.656;7.568;2023-08-12T01:35:20;15.27;;;11.90;;
5616;SDS011;2830;50.656;7.568;2023-08-12T01:37:52;16.17;;;12.23;;
5616;SDS011;2830;50.656;7.568;2023-08-12T01:40:20;18.10;;;12.37;;
5616;SDS011;2830;50.656;7.568;2023-08-12T01:42:48;12.10;;;9.37;;
5616;SDS011;2830;50.656;7.568;2023-08-12T01:45:15;14.10;;;9.63;;
5616;SDS011;2830;50.656;7.568;2023-08-12T01:47:44;11.20;;;8.80;;
5616;SDS011;2830;50.656;7.568;2023-08-12T01:50:11;18.03;;;10.03;;
5616;SDS011;2830;50.656;7.568;2023-08-12T01:52:38;10.60;;;8.93;;
5616;SDS011;2830;50.656;7.568;2023-08-12T01:55:05;11.63;;;9.00;;
5616;SDS011;2830;50.656;7.568;2023-08-12T01:57:32;12.80;;;9.67;;
5616;SDS011;2830;50.656;7.568;2023-08-12T02:00:00;11.17;;;10.00;;
5616;SDS011;2830;50.656;7.568;2023-08-12T02:02:28;12.07;;;8.33;;
5616;SDS011;2830;50.656;7.568;2023-08-12T02:04:55;11.30;;;8.30;;
5616;SDS011;2830;50.656;7.568;2023-08-12T02:07:21;11.80;;;8.67;;
5616;SDS011;2830;50.656;7.568;2023-08-12T02:09:48;12.20;;;7.67;;
5616;SDS011;2830;50.656;7.568;2023-08-12T02:12:15;9.40;;;7.50;;
5616;SDS011;2830;50.656;7.568;2023-08-12T02:14:42;10.40;;;7.20;;
5616;SDS011;2830;50.656;7.568;2023-08-12T02:17:08;8.40;;;7.10;;
5616;SDS011;2830;50.656;7.568;2023-08-12T02:19:36;11.00;;;6.90;;
5616;SDS011;2830;50.656;7.568;2023-08-12T02:22:04;8.23;;;6.70;;
5616;SDS011;2830;50.656;7.568;2023-08-12T02:24:30;10.13;;;7.33;;
5616;SDS011;2830;50.656;7.568;2023-08-12T02:26:57;11.20;;;7.87;;
5616;SDS011;2830;50.656;7.568;2023-08-12T02:29:24;13.70;;;7.30;;
5616;SDS011;2830;50.656;7.568;2023-08-12T02:31:51;15.73;;;8.00;;
5616;SDS011;2830;50.656;7.568;2023-08-12T02:34:17;10.57;;;6.70;;
5616;SDS011;2830;50.656;7.568;2023-08-12T02:36:44;8.67;;;6.50;;
5616;SDS011;2830;50.656;7.568;2023-08-12T02:39:11;7.80;;;6.10;;
5616;SDS011;2830;50.656;7.568;2023-08-12T02:41:38;11.10;;;7.97;;
5616;SDS011;2830;50.656;7.568;2023-08-12T02:44:05;9.47;;;7.27;;
5616;SDS011;2830;50.656;7.568;2023-08-12T02:46:31;8.30;;;5.80;;
5616;SDS011;2830;50.656;7.568;2023-08-12T02:48:58;12.83;;;6.23;;
5616;SDS011;2830;50.656;7.568;2023-08-12T02:51:25;7.90;;;6.20;;
5616;SDS011;2830;50.656;7.568;2023-08-12T02:53:52;13.20;;;8.60;;
5616;SDS011;2830;50.656;7.568;2023-08-12T02:56:18;8.00;;;6.73;;
5616;SDS011;2830;50.656;7.568;2023-08-12T02:58:45;9.67;;;6.60;;
5616;SDS011;2830;50.656;7.568;2023-08-12T03:01:13;10.33;;;6.57;;
5616;SDS011;2830;50.656;7.568;2023-08-12T03:03:40;8.83;;;6.60;;
5616;SDS011;2830;50.656;7.568;2023-08-12T03:06:06;8.67;;;6.90;;
5616;SDS011;2830;50.656;7.568;2023-08-12T03:08:33;6.90;;;5.23;;
5616;SDS011;2830;50.656;7.568;2023-08-12T03:11:01;6.80;;;6.07;;
5616;SDS011;2830;50.656;7.568;2023-08-12T03:13:28;8.40;;;5.73;;
5616;SDS011;2830;50.656;7.568;2023-08-12T03:15:55;7.67;;;6.87;;
5616;SDS011;2830;50.656;7.568;2023-08-12T03:18:22;10.60;;;6.63;;
5616;SDS011;2830;50.656;7.568;2023-08-12T03:20:49;9.87;;;6.70;;
5616;SDS011;2830;50.656;7.568;2023-08-12T03:23:16;6.90;;;5.93;;
5616;SDS011;2830;50.656;7.568;2023-08-12T03:25:43;7.80;;;6.53;;
5616;SDS011;2830;50.656;7.568;2023-08-12T03:28:10;8.90;;;6.60;;
5616;SDS011;2830;50.656;7.568;2023-08-12T03:30:36;11.67;;;6.63;;
5616;SDS011;2830;50.656;7.568;2023-08-12T03:33:03;7.00;;;5.77;;
5616;SDS011;2830;50.656;7.568;2023-08-12T03:35:30;9.07;;;6.70;;
5616;SDS011;2830;50.656;7.568;2023-08-12T03:37:57;9.63;;;6.80;;
5616;SDS011;2830;50.656;7.568;2023-08-12T03:40:24;12.53;;;6.80;;
5616;SDS011;2830;50.656;7.568;2023-08-12T03:42:50;8.13;;;6.27;;
5616;SDS011;2830;50.656;7.568;2023-08-12T03:45:17;7.37;;;6.27;;
5616;SDS011;2830;50.656;7.568;2023-08-12T03:47:44;8.20;;;6.60;;
5616;SDS011;2830;50.656;7.568;2023-08-12T03:50:11;9.40;;;6.77;;
5616;SDS011;2830;50.656;7.568;2023-08-12T03:52:37;9.37;;;6.40;;
5616;SDS011;2830;50.656;7.568;2023-08-12T03:55:04;7.50;;;6.67;;
5616;SDS011;2830;50.656;7.568;2023-08-12T03:57:31;12.27;;;7.33;;
5616;SDS011;2830;50.656;7.568;2023-08-12T03:59:58;8.33;;;6.07;;
5616;SDS011;2830;50.656;7.568;2023-08-12T04:02:25;6.80;;;5.70;;
5616;SDS011;2830;50.656;7.568;2023-08-12T04:04:52;8.13;;;7.33;;
5616;SDS011;2830;50.656;7.568;2023-08-12T04:07:18;8.50;;;7.60;;
5616;SDS011;2830;50.656;7.568;2023-08-12T04:09:45;8.63;;;7.00;;
5616;SDS011;2830;50.656;7.568;2023-08-12T04:12:12;7.47;;;6.67;;
5616;SDS011;2830;50.656;7.568;2023-08-12T04:14:38;9.30;;;7.73;;
5616;SDS011;2830;50.656;7.568;2023-08-12T04:17:07;11.13;;;6.80;;
5616;SDS011;2830;50.656;7.568;2023-08-12T04:19:33;11.27;;;6.90;;
5616;SDS011;2830;50.656;7.568;2023-08-12T04:22:00;16.10;;;7.17;;
5616;SDS011;2830;50.656;7.568;2023-08-12T04:24:27;8.13;;;6.70;;
5616;SDS011;2830;50.656;7.568;2023-08-12T04:26:53;8.90;;;6.77;;
5616;SDS011;2830;50.656;7.568;2023-08-12T04:29:20;7.30;;;6.33;;
5616;SDS011;2830;50.656;7.568;2023-08-12T04:31:47;7.70;;;6.90;;
5616;SDS011;2830;50.656;7.568;2023-08-12T04:34:13;8.70;;;7.10;;
5616;SDS011;2830;50.656;7.568;2023-08-12T04:36:40;8.90;;;6.47;;
5616;SDS011;2830;50.656;7.568;2023-08-12T04:39:09;8.13;;;6.90;;
5616;SDS011;2830;50.656;7.568;2023-08-12T04:41:36;8.27;;;6.83;;
5616;SDS011;2830;50.656;7.568;2023-08-12T04:44:04;7.07;;;6.07;;
5616;SDS011;2830;50.656;7.568;2023-08-12T04:46:31;6.87;;;5.03;;
5616;SDS011;2830;50.656;7.568;2023-08-12T04:48:58;6.47;;;5.23;;
5616;SDS011;2830;50.656;7.568;2023-08-12T04:51:26;8.57;;;7.20;;
5616;SDS011;2830;50.656;7.568;2023-08-12T04:53:53;8.10;;;6.43;;
5616;SDS011;2830;50.656;7.568;2023-08-12T04:56:20;6.47;;;5.43;;
5616;SDS011;2830;50.656;7.568;2023-08-12T04:58:47;7.90;;;6.20;;
5616;SDS011;2830;50.656;7.568;2023-08-12T05:01:14;7.70;;;6.03;;
5616;SDS011;2830;50.656;7.568;2023-08-12T05:03:40;8.70;;;6.23;;
5616;SDS011;2830;50.656;7.568;2023-08-12T05:06:07;7.27;;;6.30;;
5616;SDS011;2830;50.656;7.568;2023-08-12T05:08:34;12.30;;;7.23;;
5616;SDS011;2830;50.656;7.568;2023-08-12T05:11:00;7.90;;;6.13;;
5616;SDS011;2830;50.656;7.568;2023-08-12T05:13:27;10.33;;;5.50;;
5616;SDS011;2830;50.656;7.568;2023-08-12T05:15:55;6.10;;;4.83;;
5616;SDS011;2830;50.656;7.568;2023-08-12T05:18:22;7.20;;;4.97;;
5616;SDS011;2830;50.656;7.568;2023-08-12T05:20:51;6.27;;;4.50;;
5616;SDS011;2830;50.656;7.568;2023-08-12T05:23:22;6.30;;;4.93;;
5616;SDS011;2830;50.656;7.568;2023-08-12T05:25:48;5.10;;;4.37;;
5616;SDS011;2830;50.656;7.568;2023-08-12T05:28:17;4.93;;;4.50;;
5616;SDS011;2830;50.656;7.568;2023-08-12T05:30:45;10.00;;;5.80;;
5616;SDS011;2830;50.656;7.568;2023-08-12T05:33:12;5.70;;;4.77;;
5616;SDS011;2830;50.656;7.568;2023-08-12T05:35:39;4.40;;;3.67;;
5616;SDS011;2830;50.656;7.568;2023-08-12T05:38:05;5.63;;;4.90;;
5616;SDS011;2830;50.656;7.568;2023-08-12T05:40:32;4.83;;;4.30;;
5616;SDS011;2830;50.656;7.568;2023-08-12T05:42:59;6.70;;;5.40;;
5616;SDS011;2830;50.656;7.568;2023-08-12T05:45:26;6.27;;;4.63;;
5616;SDS011;2830;50.656;7.568;2023-08-12T05:47:52;4.50;;;3.90;;
5616;SDS011;2830;50.656;7.568;2023-08-12T05:50:19;5.17;;;4.67;;
5616;SDS011;2830;50.656;7.568;2023-08-12T05:52:46;6.10;;;4.57;;
5616;SDS011;2830;50.656;7.568;2023-08-12T05:55:13;6.13;;;4.60;;
5616;SDS011;2830;50.656;7.568;2023-08-12T05:57:39;5.97;;;4.87;;
5616;SDS011;2830;50.656;7.568;2023-08-12T06:00:06;4.87;;;3.73;;
5616;SDS011;2830;50.656;7.568;2023-08-12T06:02:39;4.70;;;3.77;;
5616;SDS011;2830;50.656;7.568;2023-08-12T06:05:06;5.13;;;4.60;;
5616;SDS011;2830;50.656;7.568;2023-08-12T06:07:33;6.40;;;4.43;;
5616;SDS011;2830;50.656;7.568;2023-08-12T06:10:00;7.43;;;4.30;;
5616;SDS011;2830;50.656;7.568;2023-08-12T06:12:28;6.10;;;4.70;;
5616;SDS011;2830;50.656;7.568;2023-08-12T06:14:54;6.53;;;4.93;;
5616;SDS011;2830;50.656;7.568;2023-08-12T06:17:21;7.30;;;5.87;;
5616;SDS011;2830;50.656;7.568;2023-08-12T06:19:48;7.67;;;5.97;;
5616;SDS011;2830;50.656;7.568;2023-08-12T06:22:14;7.60;;;4.90;;
5616;SDS011;2830;50.656;7.568;2023-08-12T06:24:41;6.50;;;5.37;;
5616;SDS011;2830;50.656;7.568;2023-08-12T06:27:08;5.23;;;4.73;;
5616;SDS011;2830;50.656;7.568;2023-08-12T06:29:35;8.03;;;4.90;;
5616;SDS011;2830;50.656;7.568;2023-08-12T06:32:01;6.20;;;4.17;;
5616;SDS011;2830;50.656;7.568;2023-08-12T06:34:28;5.90;;;4.50;;
5616;SDS011;2830;50.656;7.568;2023-08-12T06:36:55;11.00;;;4.53;;
5616;SDS011;2830;50.656;7.568;2023-08-12T06:39:21;5.50;;;3.50;;
5616;SDS011;2830;50.656;7.568;2023-08-12T06:41:48;4.50;;;3.50;;
5616;SDS011;2830;50.656;7.568;2023-08-12T06:44:16;5.63;;;4.20;;
5616;SDS011;2830;50.656;7.568;2023-08-12T06:46:43;5.30;;;3.67;;
5616;SDS011;2830;50.656;7.568;2023-08-12T06:49:09;8.43;;;3.23;;
5616;SDS011;2830;50.656;7.568;2023-08-12T06:51:36;5.30;;;3.30;;
5616;SDS011;2830;50.656;7.568;2023-08-12T06:54:03;2.97;;;2.67;;
5616;SDS011;2830;50.656;7.568;2023-08-12T06:56:30;5.60;;;3.37;;
5616;SDS011;2830;50.656;7.568;2023-08-12T06:58:57;6.70;;;3.80;;
5616;SDS011;2830;50.656;7.568;2023-08-12T07:01:24;4.93;;;3.40;;
5616;SDS011;2830;50.656;7.568;2023-08-12T07:03:51;5.03;;;3.43;;
5616;SDS011;2830;50.656;7.568;2023-08-12T07:06:17;22.63;;;3.80;;
5616;SDS011;2830;50.656;7.568;2023-08-12T07:08:44;5.40;;;3.93;;
5616;SDS011;2830;50.656;7.568;2023-08-12T07:11:11;5.60;;;3.20;;
5616;SDS011;2830;50.656;7.568;2023-08-12T07:13:38;5.20;;;3.10;;
5616;SDS011;2830;50.656;7.568;2023-08-12T07:16:05;9.03;;;3.30;;
5616;SDS011;2830;50.656;7.568;2023-08-12T07:18:31;3.90;;;2.67;;
5616;SDS011;2830;50.656;7.568;2023-08-12T07:20:58;4.10;;;2.60;;
5616;SDS011;2830;50.656;7.568;2023-08-12T07:23:30;3.10;;;2.40;;
5616;SDS011;2830;50.656;7.568;2023-08-12T07:25:58;3.70;;;2.63;;
5616;SDS011;2830;50.656;7.568;2023-08-12T07:28:24;4.70;;;2.30;;
5616;SDS011;2830;50.656;7.568;2023-08-12T07:30:51;7.93;;;2.40;;
5616;SDS011;2830;50.656;7.568;2023-08-12T07:33:19;3.40;;;3.07;;
5616;SDS011;2830;50.656;7.568;2023-08-12T07:35:47;3.87;;;2.33;;
5616;SDS011;2830;50.656;7.568;2023-08-12T07:38:14;3.97;;;2.27;;
5616;SDS011;2830;50.656;7.568;2023-08-12T07:40:40;11.10;;;2.83;;
5616;SDS011;2830;50.656;7.568;2023-08-12T07:45:50;3.33;;;1.87;;
5616;SDS011;2830;50.656;7.568;2023-08-12T07:48:34;2.77;;;1.83;;
5616;SDS011;2830;50.656;7.568;2023-08-12T07:51:01;5.77;;;2.10;;
5616;SDS011;2830;50.656;7.568;2023-08-12T07:53:28;2.93;;;1.60;;
5616;SDS011;2830;50.656;7.568;2023-08-12T07:55:55;2.43;;;1.63;;
5616;SDS011;2830;50.656;7.568;2023-08-12T07:58:22;4.70;;;2.33;;
5616;SDS011;2830;50.656;7.568;2023-08-12T08:00:51;4.37;;;2.10;;
5616;SDS011;2830;50.656;7.568;2023-08-12T08:03:20;2.70;;;1.87;;
5616;SDS011;2830;50.656;7.568;2023-08-12T08:05:46;3.27;;;2.20;;
5616;SDS011;2830;50.656;7.568;2023-08-12T08:08:14;5.20;;;1.80;;
5616;SDS011;2830;50.656;7.568;2023-08-12T08:10:41;3.43;;;2.07;;
5616;SDS011;2830;50.656;7.568;2023-08-12T08:13:08;4.37;;;1.83;;
5616;SDS011;2830;50.656;7.568;2023-08-12T08:15:34;2.70;;;1.90;;
5616;SDS011;2830;50.656;7.568;2023-08-12T08:18:01;5.53;;;2.23;;
5616;SDS011;2830;50.656;7.568;2023-08-12T08:20:31;2.73;;;1.80;;
5616;SDS011;2830;50.656;7.568;2023-08-12T08:22:58;3.33;;;1.97;;
5616;SDS011;2830;50.656;7.568;2023-08-12T08:25:24;3.80;;;1.87;;
5616;SDS011;2830;50.656;7.568;2023-08-12T08:27:51;2.87;;;1.73;;
5616;SDS011;2830;50.656;7.568;2023-08-12T08:30:18;3.70;;;1.73;;
5616;SDS011;2830;50.656;7.568;2023-08-12T08:32:45;2.47;;;1.90;;
5616;SDS011;2830;50.656;7.568;2023-08-12T08:35:13;5.47;;;2.70;;
5616;SDS011;2830;50.656;7.568;2023-08-12T08:37:40;4.73;;;1.80;;
5616;SDS011;2830;50.656;7.568;2023-08-12T08:40:07;4.40;;;2.43;;
5616;SDS011;2830;50.656;7.568;2023-08-12T08:42:34;3.00;;;2.10;;
5616;SDS011;2830;50.656;7.568;2023-08-12T08:45:03;7.60;;;3.43;;
5616;SDS011;2830;50.656;7.568;2023-08-12T08:47:35;3.20;;;1.83;;
5616;SDS011;2830;50.656;7.568;2023-08-12T08:50:02;4.30;;;2.00;;
5616;SDS011;2830;50.656;7.568;2023-08-12T08:52:30;5.30;;;2.10;;
5616;SDS011;2830;50.656;7.568;2023-08-12T08:54:59;3.67;;;2.13;;
5616;SDS011;2830;50.656;7.568;2023-08-12T08:57:29;3.40;;;2.07;;
5616;SDS011;2830;50.656;7.568;2023-08-12T09:00:13;4.80;;;1.90;;
5616;SDS011;2830;50.656;7.568;2023-08-12T09:02:44;5.20;;;2.60;;
5616;SDS011;2830;50.656;7.568;2023-08-12T09:05:16;5.70;;;2.47;;
5616;SDS011;2830;50.656;7.568;2023-08-12T09:07:44;3.57;;;1.90;;
5616;SDS011;2830;50.656;7.568;2023-08-12T09:10:19;4.43;;;2.27;;
5616;SDS011;2830;50.656;7.568;2023-08-12T09:12:47;4.10;;;2.23;;
5616;SDS011;2830;50.656;7.568;2023-08-12T09:15:15;3.67;;;2.40;;
5616;SDS011;2830;50.656;7.568;2023-08-12T09:17:43;5.23;;;2.17;;
5616;SDS011;2830;50.656;7.568;2023-08-12T09:20:10;3.77;;;2.07;;
5616;SDS011;2830;50.656;7.568;2023-08-12T09:22:40;4.90;;;2.80;;
5616;SDS011;2830;50.656;7.568;2023-08-12T09:25:08;4.23;;;2.77;;
5616;SDS011;2830;50.656;7.568;2023-08-12T09:27:37;5.73;;;2.20;;
5616;SDS011;2830;50.656;7.568;2023-08-12T09:30:05;4.83;;;3.00;;
5616;SDS011;2830;50.656;7.568;2023-08-12T09:32:32;3.10;;;2.10;;
5616;SDS011;2830;50.656;7.568;2023-08-12T09:35:01;8.33;;;3.40;;
5616;SDS011;2830;50.656;7.568;2023-08-12T09:37:32;3.83;;;2.60;;
5616;SDS011;2830;50.656;7.568;2023-08-12T09:39:59;4.40;;;2.17;;
5616;SDS011;2830;50.656;7.568;2023-08-12T09:42:27;4.30;;;2.30;;
5616;SDS011;2830;50.656;7.568;2023-08-12T09:44:55;3.60;;;2.30;;
5616;SDS011;2830;50.656;7.568;2023-08-12T09:47:24;11.30;;;2.67;;
5616;SDS011;2830;50.656;7.568;2023-08-12T09:49:51;4.30;;;2.30;;
5616;SDS011;2830;50.656;7.568;2023-08-12T09:52:18;5.93;;;2.80;;
5616;SDS011;2830;50.656;7.568;2023-08-12T09:54:45;7.90;;;2.70;;
5616;SDS011;2830;50.656;7.568;2023-08-12T09:57:13;5.50;;;2.20;;
5616;SDS011;2830;50.656;7.568;2023-08-12T09:59:42;3.80;;;2.60;;
5616;SDS011;2830;50.656;7.568;2023-08-12T10:02:12;4.60;;;2.80;;
5616;SDS011;2830;50.656;7.568;2023-08-12T10:04:45;13.03;;;2.60;;
5616;SDS011;2830;50.656;7.568;2023-08-12T10:07:12;6.30;;;2.57;;
5616;SDS011;2830;50.656;7.568;2023-08-12T10:09:40;4.70;;;3.40;;
5616;SDS011;2830;50.656;7.568;2023-08-12T10:12:08;4.60;;;2.50;;
5616;SDS011;2830;50.656;7.568;2023-08-12T10:14:35;3.30;;;2.50;;
5616;SDS011;2830;50.656;7.568;2023-08-12T10:17:04;3.60;;;2.53;;
5616;SDS011;2830;50.656;7.568;2023-08-12T10:19:32;3.60;;;2.53;;
5616;SDS011;2830;50.656;7.568;2023-08-12T10:22:00;5.00;;;2.90;;
5616;SDS011;2830;50.656;7.568;2023-08-12T10:24:29;5.10;;;2.90;;
5616;SDS011;2830;50.656;7.568;2023-08-12T10:26:57;5.77;;;2.90;;
5616;SDS011;2830;50.656;7.568;2023-08-12T10:29:24;3.90;;;3.23;;
5616;SDS011;2830;50.656;7.568;2023-08-12T10:31:51;6.70;;;3.27;;
5616;SDS011;2830;50.656;7.568;2023-08-12T10:34:20;6.67;;;3.07;;
5616;SDS011;2830;50.656;7.568;2023-08-12T10:36:48;5.50;;;3.13;;
5616;SDS011;2830;50.656;7.568;2023-08-12T10:39:35;4.10;;;2.90;;
5616;SDS011;2830;50.656;7.568;2023-08-12T10:42:02;4.03;;;2.60;;
5616;SDS011;2830;50.656;7.568;2023-08-12T10:44:39;5.60;;;2.50;;
5616;SDS011;2830;50.656;7.568;2023-08-12T10:47:10;5.00;;;3.10;;
5616;SDS011;2830;50.656;7.568;2023-08-12T10:49:44;5.70;;;3.00;;
5616;SDS011;2830;50.656;7.568;2023-08-12T10:52:27;4.33;;;2.40;;
5616;SDS011;2830;50.656;7.568;2023-08-12T10:55:17;4.73;;;2.70;;
5616;SDS011;2830;50.656;7.568;2023-08-12T10:57:44;6.00;;;2.70;;
5616;SDS011;2830;50.656;7.568;2023-08-12T11:00:15;4.40;;;2.70;;
5616;SDS011;2830;50.656;7.568;2023-08-12T11:02:46;4.97;;;3.17;;
5616;SDS011;2830;50.656;7.568;2023-08-12T11:05:16;5.50;;;2.73;;
5616;SDS011;2830;50.656;7.568;2023-08-12T11:07:48;4.80;;;2.70;;
5616;SDS011;2830;50.656;7.568;2023-08-12T11:10:27;4.17;;;2.60;;
5616;SDS011;2830;50.656;7.568;2023-08-12T11:12:59;6.00;;;3.27;;
5616;SDS011;2830;50.656;7.568;2023-08-12T11:17:58;6.57;;;2.87;;
5616;SDS011;2830;50.656;7.568;2023-08-12T11:20:25;5.10;;;2.63;;
5616;SDS011;2830;50.656;7.568;2023-08-12T11:22:54;7.93;;;2.97;;
5616;SDS011;2830;50.656;7.568;2023-08-12T11:25:21;4.93;;;2.20;;
5616;SDS011;2830;50.656;7.568;2023-08-12T11:27:48;5.67;;;4.90;;
5616;SDS011;2830;50.656;7.568;2023-08-12T11:30:16;7.13;;;2.70;;
5616;SDS011;2830;50.656;7.568;2023-08-12T11:32:45;4.67;;;3.23;;
5616;SDS011;2830;50.656;7.568;2023-08-12T11:35:13;6.53;;;3.30;;
5616;SDS011;2830;50.656;7.568;2023-08-12T11:37:42;3.63;;;2.40;;
5616;SDS011;2830;50.656;7.568;2023-08-12T11:40:11;7.80;;;3.50;;
5616;SDS011;2830;50.656;7.568;2023-08-12T11:42:41;5.40;;;2.40;;
5616;SDS011;2830;50.656;7.568;2023-08-12T11:45:11;6.60;;;3.37;;
5616;SDS011;2830;50.656;7.568;2023-08-12T11:47:39;4.10;;;2.30;;
5616;SDS011;2830;50.656;7.568;2023-08-12T11:50:07;6.97;;;2.50;;
5616;SDS011;2830;50.656;7.568;2023-08-12T11:52:36;4.33;;;2.80;;
5616;SDS011;2830;50.656;7.568;2023-08-12T11:55:07;5.20;;;2.20;;
5616;SDS011;2830;50.656;7.568;2023-08-12T11:57:35;5.87;;;2.57;;
5616;SDS011;2830;50.656;7.568;2023-08-12T12:00:11;3.00;;;2.17;;
5616;SDS011;2830;50.656;7.568;2023-08-12T12:02:53;4.50;;;2.30;;
5616;SDS011;2830;50.656;7.568;2023-08-12T12:05:22;4.70;;;2.53;;
5616;SDS011;2830;50.656;7.568;2023-08-12T12:07:51;4.97;;;2.10;;
5616;SDS011;2830;50.656;7.568;2023-08-12T12:10:19;11.00;;;2.60;;
5616;SDS011;2830;50.656;7.568;2023-08-12T12:12:59;4.73;;;2.50;;
5616;SDS011;2830;50.656;7.568;2023-08-12T12:15:26;4.80;;;2.60;;
5616;SDS011;2830;50.656;7.568;2023-08-12T12:17:53;7.37;;;2.77;;
5616;SDS011;2830;50.656;7.568;2023-08-12T12:20:20;5.40;;;2.50;;
5616;SDS011;2830;50.656;7.568;2023-08-12T12:22:48;7.10;;;3.20;;
5616;SDS011;2830;50.656;7.568;2023-08-12T12:25:15;3.87;;;2.20;;
5616;SDS011;2830;50.656;7.568;2023-08-12T12:27:45;3.87;;;2.50;;
5616;SDS011;2830;50.656;7.568;2023-08-12T12:30:13;5.70;;;3.20;;
5616;SDS011;2830;50.656;7.568;2023-08-12T12:32:41;10.70;;;2.33;;
5616;SDS011;2830;50.656;7.568;2023-08-12T12:35:08;5.03;;;2.30;;
5616;SDS011;2830;50.656;7.568;2023-08-12T12:37:35;6.83;;;2.20;;
5616;SDS011;2830;50.656;7.568;2023-08-12T12:40:02;4.47;;;2.17;;
5616;SDS011;2830;50.656;7.568;2023-08-12T12:42:30;5.77;;;2.00;;
5616;SDS011;2830;50.656;7.568;2023-08-12T12:44:57;7.23;;;2.17;;
5616;SDS011;2830;50.656;7.568;2023-08-12T12:47:24;2.90;;;2.10;;
5616;SDS011;2830;50.656;7.568;2023-08-12T12:49:50;4.20;;;1.93;;
5616;SDS011;2830;50.656;7.568;2023-08-12T12:52:17;3.37;;;2.10;;
5616;SDS011;2830;50.656;7.568;2023-08-12T12:54:44;2.90;;;1.40;;
5616;SDS011;2830;50.656;7.568;2023-08-12T12:57:12;2.93;;;1.67;;
5616;SDS011;2830;50.656;7.568;2023-08-12T12:59:38;5.30;;;1.63;;
5616;SDS011;2830;50.656;7.568;2023-08-12T13:02:05;3.63;;;1.80;;
5616;SDS011;2830;50.656;7.568;2023-08-12T13:04:32;3.80;;;2.30;;
5616;SDS011;2830;50.656;7.568;2023-08-12T13:07:00;4.63;;;2.03;;
5616;SDS011;2830;50.656;7.568;2023-08-12T13:09:27;2.83;;;1.60;;
5616;SDS011;2830;50.656;7.568;2023-08-12T13:11:54;5.83;;;2.30;;
5616;SDS011;2830;50.656;7.568;2023-08-12T13:14:23;2.67;;;1.90;;
5616;SDS011;2830;50.656;7.568;2023-08-12T13:16:49;3.07;;;1.60;;
5616;SDS011;2830;50.656;7.568;2023-08-12T13:19:16;3.30;;;1.40;;
5616;SDS011;2830;50.656;7.568;2023-08-12T13:21:43;3.70;;;1.57;;
5616;SDS011;2830;50.656;7.568;2023-08-12T13:24:10;3.47;;;2.13;;
5616;SDS011;2830;50.656;7.568;2023-08-12T13:26:36;2.93;;;1.90;;
5616;SDS011;2830;50.656;7.568;2023-08-12T13:29:03;7.80;;;2.07;;
5616;SDS011;2830;50.656;7.568;2023-08-12T13:31:30;3.37;;;1.90;;
5616;SDS011;2830;50.656;7.568;2023-08-12T13:33:56;4.17;;;2.20;;
5616;SDS011;2830;50.656;7.568;2023-08-12T13:36:23;3.90;;;2.50;;
5616;SDS011;2830;50.656;7.568;2023-08-12T13:38:50;4.80;;;2.60;;
5616;SDS011;2830;50.656;7.568;2023-08-12T13:41:17;4.27;;;2.10;;
5616;SDS011;2830;50.656;7.568;2023-08-12T13:43:43;5.83;;;1.90;;
5616;SDS011;2830;50.656;7.568;2023-08-12T13:46:10;6.03;;;2.50;;
5616;SDS011;2830;50.656;7.568;2023-08-12T13:48:37;3.87;;;2.37;;
5616;SDS011;2830;50.656;7.568;2023-08-12T13:51:04;3.20;;;1.97;;
5616;SDS011;2830;50.656;7.568;2023-08-12T13:53:30;7.87;;;2.13;;
5616;SDS011;2830;50.656;7.568;2023-08-12T13:55:57;4.33;;;2.23;;
5616;SDS011;2830;50.656;7.568;2023-08-12T13:58:24;4.67;;;2.20;;
5616;SDS011;2830;50.656;7.568;2023-08-12T14:00:50;6.07;;;2.00;;
5616;SDS011;2830;50.656;7.568;2023-08-12T14:03:18;4.53;;;1.80;;
5616;SDS011;2830;50.656;7.568;2023-08-12T14:05:44;3.10;;;1.70;;
5616;SDS011;2830;50.656;7.568;2023-08-12T14:08:11;3.23;;;1.90;;
5616;SDS011;2830;50.656;7.568;2023-08-12T14:10:38;6.63;;;2.70;;
5616;SDS011;2830;50.656;7.568;2023-08-12T14:13:05;5.57;;;2.50;;
5616;SDS011;2830;50.656;7.568;2023-08-12T14:15:33;3.70;;;2.10;;
5616;SDS011;2830;50.656;7.568;2023-08-12T14:17:59;3.47;;;1.70;;
5616;SDS011;2830;50.656;7.568;2023-08-12T14:20:26;4.87;;;2.20;;
5616;SDS011;2830;50.656;7.568;2023-08-12T14:22:53;2.87;;;1.70;;
5616;SDS011;2830;50.656;7.568;2023-08-12T14:25:20;4.43;;;1.83;;
5616;SDS011;2830;50.656;7.568;2023-08-12T14:27:46;5.13;;;1.70;;
5616;SDS011;2830;50.656;7.568;2023-08-12T14:30:13;4.17;;;1.77;;
5616;SDS011;2830;50.656;7.568;2023-08-12T14:32:40;5.10;;;1.50;;
5616;SDS011;2830;50.656;7.568;2023-08-12T14:35:07;7.87;;;1.90;;
5616;SDS011;2830;50.656;7.568;2023-08-12T14:37:34;3.20;;;1.60;;
5616;SDS011;2830;50.656;7.568;2023-08-12T14:40:01;4.37;;;1.40;;
5616;SDS011;2830;50.656;7.568;2023-08-12T14:42:27;5.53;;;1.30;;
5616;SDS011;2830;50.656;7.568;2023-08-12T14:44:55;3.50;;;1.30;;
5616;SDS011;2830;50.656;7.568;2023-08-12T14:47:22;3.40;;;1.50;;
5616;SDS011;2830;50.656;7.568;2023-08-12T14:49:49;3.10;;;1.20;;
5616;SDS011;2830;50.656;7.568;2023-08-12T14:52:19;3.43;;;1.27;;
5616;SDS011;2830;50.656;7.568;2023-08-12T14:54:46;2.57;;;1.40;;
5616;SDS011;2830;50.656;7.568;2023-08-12T14:57:13;2.87;;;1.13;;
5616;SDS011;2830;50.656;7.568;2023-08-12T14:59:40;2.60;;;0.90;;
5616;SDS011;2830;50.656;7.568;2023-08-12T15:02:07;2.93;;;1.20;;
5616;SDS011;2830;50.656;7.568;2023-08-12T15:04:34;3.33;;;1.30;;
5616;SDS011;2830;50.656;7.568;2023-08-12T15:07:01;3.53;;;1.10;;
5616;SDS011;2830;50.656;7.568;2023-08-12T15:09:28;4.20;;;1.30;;
5616;SDS011;2830;50.656;7.568;2023-08-12T15:11:55;2.47;;;1.13;;
5616;SDS011;2830;50.656;7.568;2023-08-12T15:14:22;4.87;;;1.40;;
5616;SDS011;2830;50.656;7.568;2023-08-12T15:16:49;3.20;;;1.30;;
5616;SDS011;2830;50.656;7.568;2023-08-12T15:19:16;2.37;;;0.90;;
5616;SDS011;2830;50.656;7.568;2023-08-12T15:21:43;2.63;;;0.80;;
5616;SDS011;2830;50.656;7.568;2023-08-12T15:24:09;2.23;;;0.93;;